createdAt,value
2023-03-29T00:01:02.460Z,18.67
2023-03-29T00:03:30.850Z,18.80
2023-03-29T00:06:04.073Z,18.22
2023-03-29T00:08:32.351Z,18.83
2023-03-29T00:10:59.472Z,18.86
2023-03-29T00:13:27.479Z,18.69
2023-03-29T00:15:54.646Z,18.83
2023-03-29T00:18:21.431Z,18.87
2023-03-29T00:20:57.485Z,18.90
2023-03-29T00:23:25.163Z,18.95
2023-03-29T00:25:55.146Z,18.96
2023-03-29T00:28:22.202Z,18.98
2023-03-29T00:30:50.965Z,18.79
2023-03-29T00:33:20.629Z,18.47
2023-03-29T00:35:50.934Z,18.90
2023-03-29T00:38:17.996Z,18.72
2023-03-29T00:40:46.928Z,18.87
2023-03-29T00:43:14.617Z,18.72
2023-03-29T00:45:41.648Z,18.88
2023-03-29T00:48:13.119Z,18.85
2023-03-29T00:50:47.548Z,18.81
2023-03-29T00:53:28.540Z,18.76
2023-03-29T00:55:59.832Z,18.73
2023-03-29T00:58:39.537Z,18.46
2023-03-29T01:01:08.904Z,18.67
2023-03-29T01:03:47.198Z,18.63
2023-03-29T01:06:15.405Z,18.37
2023-03-29T01:08:45.652Z,18.62
2023-03-29T01:11:18.516Z,18.60
2023-03-29T01:13:49.352Z,18.56
2023-03-29T01:16:19.425Z,18.51
2023-03-29T01:18:49.012Z,18.18
2023-03-29T01:21:25.512Z,18.22
2023-03-29T01:23:58.384Z,18.42
2023-03-29T01:27:05.569Z,18.45
2023-03-29T01:29:38.773Z,18.49
2023-03-29T01:32:43.283Z,18.03
2023-03-29T01:35:43.813Z,18.46
2023-03-29T01:38:16.466Z,18.49
2023-03-29T01:40:43.607Z,17.92
2023-03-29T01:43:32.394Z,18.64
2023-03-29T01:46:07.276Z,18.68
2023-03-29T01:48:40.460Z,18.68
2023-03-29T01:51:23.806Z,18.51
2023-03-29T01:53:53.009Z,18.38
2023-03-29T01:56:24.998Z,18.55
2023-03-29T01:58:53.821Z,18.53
2023-03-29T02:01:23.248Z,18.52
2023-03-29T02:03:51.150Z,18.21
2023-03-29T02:06:21.041Z,18.46
2023-03-29T02:08:47.888Z,18.17
2023-03-29T02:11:14.850Z,18.35
2023-03-29T02:13:41.776Z,18.11
2023-03-29T02:16:12.721Z,18.39
2023-03-29T02:18:44.304Z,18.47
2023-03-29T02:21:21.364Z,18.38
2023-03-29T02:23:49.419Z,18.43
2023-03-29T02:26:17.917Z,18.66
2023-03-29T02:28:44.701Z,18.75
2023-03-29T02:31:30.570Z,18.78
2023-03-29T02:34:02.341Z,18.78
2023-03-29T02:37:00.211Z,18.79
2023-03-29T02:39:28.338Z,18.79
2023-03-29T02:41:55.121Z,18.50
2023-03-29T02:44:24.480Z,18.76
2023-03-29T02:46:51.586Z,18.73
2023-03-29T02:49:18.418Z,18.48
2023-03-29T02:51:45.226Z,18.37
2023-03-29T02:54:23.301Z,18.57
2023-03-29T02:56:55.501Z,18.35
2023-03-29T02:59:25.052Z,18.23
2023-03-29T03:01:52.733Z,18.22
2023-03-29T03:04:23.029Z,18.24
2023-03-29T03:06:49.741Z,18.31
2023-03-29T03:09:16.953Z,18.39
2023-03-29T03:11:43.734Z,18.23
2023-03-29T03:14:11.074Z,18.10
2023-03-29T03:16:38.005Z,18.29
2023-03-29T03:19:05.033Z,18.22
2023-03-29T03:21:31.886Z,17.53
2023-03-29T03:23:58.810Z,18.18
2023-03-29T03:26:25.589Z,17.98
2023-03-29T03:28:52.310Z,18.17
2023-03-29T03:31:19.904Z,17.96
2023-03-29T03:33:46.829Z,17.85
2023-03-29T03:36:14.120Z,18.21
2023-03-29T03:38:41.592Z,18.12
2023-03-29T03:41:09.264Z,18.17
2023-03-29T03:43:44.059Z,17.90
2023-03-29T03:46:10.860Z,18.10
2023-03-29T03:48:37.737Z,17.88
2023-03-29T03:51:05.005Z,17.94
2023-03-29T03:53:32.363Z,17.79
2023-03-29T03:55:59.103Z,17.89
2023-03-29T03:58:27.198Z,18.07
2023-03-29T04:00:55.000Z,17.99
2023-03-29T04:03:21.888Z,17.71
2023-03-29T04:05:51.954Z,17.93
2023-03-29T04:08:19.242Z,17.90
2023-03-29T04:10:53.482Z,17.63
2023-03-29T04:13:20.280Z,17.73
2023-03-29T04:15:49.955Z,17.77
2023-03-29T04:18:19.827Z,17.80
2023-03-29T04:20:49.355Z,17.77
2023-03-29T04:23:16.189Z,17.59
2023-03-29T04:25:43.319Z,17.55
2023-03-29T04:28:11.112Z,17.69
2023-03-29T04:30:38.085Z,17.48
2023-03-29T04:33:04.873Z,17.62
2023-03-29T04:35:31.881Z,17.67
2023-03-29T04:37:58.742Z,17.67
2023-03-29T04:40:25.470Z,17.68
2023-03-29T04:42:52.656Z,17.64
2023-03-29T04:45:19.629Z,17.54
2023-03-29T04:47:46.510Z,17.75
2023-03-29T04:50:13.996Z,17.81
2023-03-29T04:52:41.125Z,17.87
2023-03-29T04:55:08.339Z,17.75
2023-03-29T04:57:35.152Z,17.92
2023-03-29T05:00:02.158Z,17.94
2023-03-29T05:02:32.424Z,17.94
2023-03-29T05:04:59.422Z,17.71
2023-03-29T05:07:26.257Z,17.77
2023-03-29T05:09:53.563Z,17.82
2023-03-29T05:12:20.395Z,17.82
2023-03-29T05:14:47.320Z,17.81
2023-03-29T05:17:14.357Z,17.77
2023-03-29T05:19:41.487Z,17.59
2023-03-29T05:22:09.171Z,17.88
2023-03-29T05:24:36.307Z,17.87
2023-03-29T05:27:03.756Z,17.61
2023-03-29T05:29:33.018Z,17.79
2023-03-29T05:31:59.967Z,17.80
2023-03-29T05:34:27.106Z,17.77
2023-03-29T05:36:53.964Z,17.59
2023-03-29T05:39:21.222Z,17.86
2023-03-29T05:41:48.255Z,17.89
2023-03-29T05:44:14.986Z,17.79
2023-03-29T05:46:42.078Z,17.98
2023-03-29T05:49:08.917Z,18.03
2023-03-29T05:51:35.746Z,18.00
2023-03-29T05:54:02.468Z,18.08
2023-03-29T05:56:29.388Z,18.04
2023-03-29T05:58:57.133Z,17.96
2023-03-29T06:01:24.694Z,17.94
2023-03-29T06:03:52.350Z,17.88
2023-03-29T06:06:19.410Z,17.89
2023-03-29T06:08:46.570Z,17.85
2023-03-29T06:11:13.642Z,17.96
2023-03-29T06:13:41.580Z,17.90
2023-03-29T06:16:09.331Z,17.82
2023-03-29T06:18:36.403Z,17.86
2023-03-29T06:21:03.686Z,17.18
2023-03-29T06:23:30.847Z,17.81
2023-03-29T06:25:58.187Z,17.63
2023-03-29T06:28:25.034Z,17.77
2023-03-29T06:30:54.138Z,17.46
2023-03-29T06:33:21.221Z,17.72
2023-03-29T06:35:48.468Z,17.77
2023-03-29T06:38:15.718Z,17.81
2023-03-29T06:40:44.622Z,17.61
2023-03-29T06:43:11.345Z,17.85
2023-03-29T06:45:38.843Z,17.69
2023-03-29T06:48:06.460Z,17.88
2023-03-29T06:50:34.354Z,17.90
2023-03-29T06:53:01.924Z,17.90
2023-03-29T06:55:28.917Z,17.88
2023-03-29T06:57:55.659Z,17.89
2023-03-29T07:00:28.428Z,17.95
2023-03-29T07:02:56.482Z,17.98
2023-03-29T07:05:24.087Z,17.92
2023-03-29T07:07:57.250Z,18.30
2023-03-29T07:10:34.037Z,18.16
2023-03-29T07:13:01.132Z,18.52
2023-03-29T07:15:28.408Z,18.43
2023-03-29T07:17:56.024Z,18.34
2023-03-29T07:20:23.225Z,18.62
2023-03-29T07:22:51.574Z,18.84
2023-03-29T07:25:19.109Z,19.16
2023-03-29T07:27:46.500Z,19.05
2023-03-29T07:30:18.578Z,18.98
2023-03-29T07:32:46.649Z,18.89
2023-03-29T07:35:14.715Z,18.82
2023-03-29T07:37:43.032Z,18.40
2023-03-29T07:40:13.520Z,18.48
2023-03-29T07:42:40.428Z,18.72
2023-03-29T07:45:08.704Z,18.66
2023-03-29T07:47:35.664Z,18.74
2023-03-29T07:50:02.964Z,18.77
2023-03-29T07:52:30.194Z,18.82
2023-03-29T07:54:57.641Z,18.86
2023-03-29T07:57:25.135Z,18.93
2023-03-29T07:59:51.944Z,18.95
2023-03-29T08:02:19.807Z,19.06
2023-03-29T08:04:46.940Z,18.98
2023-03-29T08:07:16.375Z,19.04
2023-03-29T08:09:45.263Z,19.10
2023-03-29T08:12:12.037Z,19.34
2023-03-29T08:14:38.934Z,19.45
2023-03-29T08:17:06.081Z,19.54
2023-03-29T08:19:32.887Z,19.67
2023-03-29T08:22:00.982Z,19.84
2023-03-29T08:24:27.883Z,19.76
2023-03-29T08:26:54.661Z,19.97
2023-03-29T08:29:22.445Z,19.98
2023-03-29T08:31:49.592Z,19.99
2023-03-29T08:34:16.375Z,19.98
2023-03-29T08:36:43.199Z,19.95
2023-03-29T08:39:10.231Z,19.68
2023-03-29T08:41:41.991Z,19.86
2023-03-29T08:44:14.326Z,19.81
2023-03-29T08:46:48.047Z,19.61
2023-03-29T08:49:14.982Z,19.76
2023-03-29T08:51:45.512Z,19.78
2023-03-29T08:54:31.182Z,19.80
2023-03-29T08:57:18.701Z,19.85
2023-03-29T08:59:45.785Z,19.90
2023-03-29T09:02:18.134Z,19.70
2023-03-29T09:04:45.321Z,19.81
2023-03-29T09:07:12.071Z,20.07
2023-03-29T09:09:38.822Z,19.87
2023-03-29T09:12:09.020Z,20.25
2023-03-29T09:14:48.058Z,20.33
2023-03-29T09:17:42.880Z,20.41
2023-03-29T09:20:40.957Z,20.50
2023-03-29T09:23:18.235Z,20.57
2023-03-29T09:26:12.970Z,20.64
2023-03-29T09:28:49.070Z,20.71
2023-03-29T09:31:28.830Z,20.60
2023-03-29T09:34:31.808Z,20.82
2023-03-29T09:37:09.162Z,20.66
2023-03-29T09:39:36.990Z,21.10
2023-03-29T09:42:12.017Z,21.20
2023-03-29T09:44:52.963Z,21.25
2023-03-29T09:47:31.713Z,21.22
2023-03-29T09:50:30.351Z,21.20
2023-03-29T09:52:58.594Z,21.27
2023-03-29T09:55:28.011Z,21.51
2023-03-29T09:57:56.292Z,21.86
2023-03-29T10:00:23.145Z,21.94
2023-03-29T10:02:53.971Z,22.39
2023-03-29T10:05:22.122Z,22.78
2023-03-29T10:07:51.522Z,23.11
2023-03-29T10:10:27.505Z,23.31
2023-03-29T10:12:57.212Z,23.49
2023-03-29T10:15:29.625Z,23.58
2023-03-29T10:18:03.333Z,23.65
2023-03-29T10:20:30.253Z,23.91
2023-03-29T10:22:58.835Z,23.99
2023-03-29T10:25:30.212Z,24.29
2023-03-29T10:28:32.501Z,24.56
2023-03-29T10:31:01.012Z,24.81
2023-03-29T10:33:31.257Z,25.15
2023-03-29T10:35:58.044Z,25.10
2023-03-29T10:38:28.117Z,25.37
2023-03-29T10:40:57.087Z,25.40
2023-03-29T10:43:29.763Z,25.27
2023-03-29T10:45:57.678Z,25.37
2023-03-29T10:48:28.882Z,25.45
2023-03-29T10:50:58.451Z,25.31
2023-03-29T10:53:26.328Z,25.42
2023-03-29T10:56:17.702Z,25.35
2023-03-29T10:59:04.532Z,25.11
2023-03-29T11:02:13.331Z,25.21
2023-03-29T11:04:58.491Z,25.20
2023-03-29T11:07:30.062Z,25.35
2023-03-29T11:10:02.423Z,25.54
2023-03-29T11:12:57.837Z,25.50
2023-03-29T11:15:39.932Z,25.60
2023-03-29T11:18:41.990Z,25.50
2023-03-29T11:21:33.611Z,25.53
2023-03-29T11:24:15.686Z,25.71
2023-03-29T11:26:53.706Z,25.77
2023-03-29T11:29:29.642Z,25.52
2023-03-29T11:31:59.853Z,25.49
2023-03-29T11:34:45.670Z,25.63
2023-03-29T11:37:38.737Z,25.52
2023-03-29T11:40:20.533Z,25.61
2023-03-29T11:42:48.669Z,25.67
2023-03-29T11:45:35.676Z,25.77
2023-03-29T11:48:03.160Z,25.95
2023-03-29T11:50:36.022Z,26.00
2023-03-29T11:53:08.501Z,26.24
2023-03-29T11:55:37.205Z,26.39
2023-03-29T11:58:13.043Z,26.52
2023-03-29T12:00:44.961Z,26.58
2023-03-29T12:03:43.076Z,26.80
2023-03-29T12:06:28.136Z,26.88
2023-03-29T12:09:00.723Z,26.98
2023-03-29T12:11:39.353Z,27.20
2023-03-29T12:14:22.345Z,27.37
2023-03-29T12:16:58.527Z,27.57
2023-03-29T12:20:07.627Z,27.64
2023-03-29T12:22:34.435Z,27.78
2023-03-29T12:25:01.194Z,27.71
2023-03-29T12:27:40.221Z,27.67
2023-03-29T12:30:15.955Z,27.70
2023-03-29T12:33:10.583Z,27.84
2023-03-29T12:35:43.503Z,27.84
2023-03-29T12:38:19.407Z,27.71
2023-03-29T12:40:47.864Z,27.57
2023-03-29T12:43:26.583Z,27.19
2023-03-29T12:46:15.417Z,27.43
2023-03-29T12:48:42.589Z,27.36
2023-03-29T12:51:14.118Z,27.20
2023-03-29T12:53:41.782Z,27.07
2023-03-29T12:56:17.019Z,27.42
2023-03-29T12:58:52.296Z,27.47
2023-03-29T13:01:29.263Z,27.63
2023-03-29T13:04:01.988Z,27.70
2023-03-29T13:06:51.195Z,27.69
2023-03-29T13:09:31.093Z,27.42
2023-03-29T13:12:10.600Z,27.49
2023-03-29T13:14:38.201Z,27.35
2023-03-29T13:17:17.795Z,27.77
2023-03-29T13:19:48.052Z,27.60
2023-03-29T13:22:36.147Z,26.53
2023-03-29T13:25:24.668Z,26.37
2023-03-29T13:28:11.088Z,25.73
2023-03-29T13:30:59.971Z,25.29
2023-03-29T13:33:53.262Z,24.88
2023-03-29T13:37:09.863Z,24.66
2023-03-29T13:39:37.528Z,24.12
2023-03-29T13:42:29.089Z,24.12
2023-03-29T13:45:37.075Z,23.89
2023-03-29T13:48:25.501Z,23.53
2023-03-29T13:51:22.249Z,23.48
2023-03-29T13:53:55.395Z,23.38
2023-03-29T13:56:27.441Z,23.36
2023-03-29T13:59:20.517Z,23.22
2023-03-29T14:01:50.732Z,23.07
2023-03-29T14:04:23.259Z,22.99
2023-03-29T14:06:52.891Z,23.00
2023-03-29T14:09:20.601Z,22.77
2023-03-29T14:11:47.597Z,22.72
2023-03-29T14:14:14.906Z,22.71
2023-03-29T14:16:42.349Z,22.55
2023-03-29T14:19:13.841Z,22.36
2023-03-29T14:21:41.665Z,22.11
2023-03-29T14:24:12.973Z,22.28
2023-03-29T14:26:44.375Z,22.27
2023-03-29T14:29:12.153Z,22.16
2023-03-29T14:31:40.797Z,21.94
2023-03-29T14:34:17.561Z,22.06
2023-03-29T14:36:45.657Z,21.89
2023-03-29T14:39:20.474Z,21.63
2023-03-29T14:41:52.844Z,21.75
2023-03-29T14:44:21.271Z,21.71
2023-03-29T14:46:48.240Z,21.45
2023-03-29T14:49:19.748Z,21.60
2023-03-29T14:51:46.912Z,21.56
2023-03-29T14:54:19.602Z,21.50
2023-03-29T14:56:48.506Z,21.47
2023-03-29T14:59:39.099Z,20.85
2023-03-29T15:02:22.146Z,21.27
2023-03-29T15:04:55.500Z,21.22
2023-03-29T15:07:28.546Z,21.17
2023-03-29T15:09:56.297Z,21.17
2023-03-29T15:12:23.135Z,21.04
2023-03-29T15:14:53.053Z,21.12
2023-03-29T15:17:39.425Z,21.04
2023-03-29T15:20:16.902Z,20.97
2023-03-29T15:23:19.054Z,20.90
2023-03-29T15:25:57.154Z,20.83
2023-03-29T15:28:27.145Z,20.84
2023-03-29T15:31:07.254Z,20.67
2023-03-29T15:33:36.812Z,20.86
2023-03-29T15:36:04.599Z,20.84
2023-03-29T15:38:43.374Z,20.66
2023-03-29T15:41:11.093Z,20.85
2023-03-29T15:43:38.034Z,20.74
2023-03-29T15:46:05.174Z,20.85
2023-03-29T15:48:33.965Z,20.83
2023-03-29T15:51:05.752Z,20.71
2023-03-29T15:53:33.380Z,20.59
2023-03-29T15:56:02.122Z,20.65
2023-03-29T15:58:32.724Z,20.65
2023-03-29T16:01:11.546Z,20.62
2023-03-29T16:03:39.117Z,20.59
2023-03-29T16:06:06.417Z,20.59
2023-03-29T16:08:33.233Z,20.53
2023-03-29T16:10:59.979Z,20.43
2023-03-29T16:13:26.759Z,20.74
2023-03-29T16:15:53.640Z,20.85
2023-03-29T16:18:20.359Z,20.96
2023-03-29T16:20:47.242Z,20.99
2023-03-29T16:23:14.210Z,20.66
2023-03-29T16:25:41.214Z,20.85
2023-03-29T16:28:08.724Z,20.84
2023-03-29T16:30:36.101Z,20.84
2023-03-29T16:33:08.430Z,20.80
2023-03-29T16:35:38.072Z,20.86
2023-03-29T16:38:04.951Z,20.77
2023-03-29T16:40:31.792Z,20.70
2023-03-29T16:43:00.234Z,20.63
2023-03-29T16:45:27.375Z,20.53
2023-03-29T16:47:54.708Z,20.58
2023-03-29T16:50:22.185Z,20.29
2023-03-29T16:52:49.029Z,20.44
2023-03-29T16:55:19.083Z,20.37
2023-03-29T16:57:46.960Z,20.31
2023-03-29T17:00:16.035Z,20.28
2023-03-29T17:02:46.235Z,20.19
2023-03-29T17:05:13.088Z,20.07
2023-03-29T17:07:39.893Z,19.83
2023-03-29T17:10:08.307Z,19.76
2023-03-29T17:12:35.556Z,19.95
2023-03-29T17:15:03.039Z,19.81
2023-03-29T17:17:29.934Z,19.87
2023-03-29T17:19:56.869Z,19.70
2023-03-29T17:22:24.177Z,19.72
2023-03-29T17:24:51.003Z,19.60
2023-03-29T17:27:18.288Z,19.50
2023-03-29T17:29:45.000Z,19.47
2023-03-29T17:32:11.747Z,19.42
2023-03-29T17:34:39.156Z,19.36
2023-03-29T17:37:05.963Z,19.29
2023-03-29T17:39:35.126Z,19.25
2023-03-29T17:42:02.019Z,19.21
2023-03-29T17:44:28.919Z,19.18
2023-03-29T17:46:55.788Z,19.08
2023-03-29T17:49:22.846Z,18.99
2023-03-29T17:51:49.686Z,18.61
2023-03-29T17:54:16.635Z,19.18
2023-03-29T17:56:43.510Z,19.20
2023-03-29T17:59:10.262Z,19.17
2023-03-29T18:01:39.074Z,19.16
2023-03-29T18:04:06.552Z,19.12
2023-03-29T18:06:33.302Z,18.77
2023-03-29T18:09:01.715Z,19.03
2023-03-29T18:11:29.284Z,18.89
2023-03-29T18:13:58.748Z,18.92
2023-03-29T18:16:25.825Z,18.98
2023-03-29T18:18:52.799Z,18.97
2023-03-29T18:21:19.692Z,18.77
2023-03-29T18:23:47.295Z,18.98
2023-03-29T18:26:15.003Z,18.93
2023-03-29T18:28:41.759Z,18.90
2023-03-29T18:31:08.542Z,18.91
2023-03-29T18:33:35.628Z,18.61
2023-03-29T18:36:10.808Z,18.72
2023-03-29T18:38:40.846Z,18.58
2023-03-29T18:41:09.397Z,18.81
2023-03-29T18:43:37.107Z,18.67
2023-03-29T18:46:04.094Z,18.80
2023-03-29T18:48:31.335Z,18.68
2023-03-29T18:50:58.296Z,18.75
2023-03-29T18:53:25.293Z,18.75
2023-03-29T18:55:52.023Z,18.24
2023-03-29T18:58:20.446Z,18.77
2023-03-29T19:00:47.338Z,18.73
2023-03-29T19:03:14.275Z,18.67
2023-03-29T19:05:41.169Z,18.60
2023-03-29T19:08:09.180Z,18.56
2023-03-29T19:10:36.849Z,18.65
2023-03-29T19:13:04.259Z,18.46
2023-03-29T19:15:32.518Z,18.40
2023-03-29T19:17:59.448Z,18.63
2023-03-29T19:20:26.675Z,18.49
2023-03-29T19:22:53.858Z,18.41
2023-03-29T19:25:20.849Z,18.60
2023-03-29T19:27:48.014Z,18.45
2023-03-29T19:30:15.170Z,18.33
2023-03-29T19:32:41.935Z,18.20
2023-03-29T19:35:09.822Z,18.51
2023-03-29T19:37:36.764Z,18.52
2023-03-29T19:40:06.550Z,18.49
2023-03-29T19:42:36.176Z,18.37
2023-03-29T19:45:04.216Z,18.50
2023-03-29T19:47:31.241Z,18.49
2023-03-29T19:50:01.242Z,18.53
2023-03-29T19:52:28.441Z,18.42
2023-03-29T19:54:56.473Z,17.95
2023-03-29T19:57:23.982Z,18.40
2023-03-29T19:59:53.347Z,18.44
2023-03-29T20:02:20.076Z,17.94
2023-03-29T20:04:46.845Z,18.46
2023-03-29T20:07:13.904Z,18.48
2023-03-29T20:09:43.931Z,18.37
2023-03-29T20:12:12.121Z,18.15
2023-03-29T20:14:40.495Z,18.16
2023-03-29T20:17:07.842Z,18.31
2023-03-29T20:19:36.740Z,18.41
2023-03-29T20:22:04.273Z,18.33
2023-03-29T20:24:32.817Z,18.34
2023-03-29T20:26:59.640Z,18.30
2023-03-29T20:29:27.462Z,18.35
2023-03-29T20:31:54.271Z,18.28
2023-03-29T20:34:21.240Z,18.37
2023-03-29T20:36:48.877Z,18.31
2023-03-29T20:39:18.922Z,18.39
2023-03-29T20:41:49.275Z,18.39
2023-03-29T20:44:16.988Z,18.40
2023-03-29T20:46:54.597Z,18.14
2023-03-29T20:49:26.644Z,18.27
2023-03-29T20:51:59.022Z,18.13
2023-03-29T20:54:26.021Z,18.33
2023-03-29T20:56:55.151Z,18.29
2023-03-29T20:59:23.095Z,18.17
2023-03-29T21:01:50.561Z,18.23
2023-03-29T21:04:17.574Z,18.33
2023-03-29T21:06:46.009Z,18.34
2023-03-29T21:09:13.733Z,18.16
2023-03-29T21:11:40.975Z,18.35
2023-03-29T21:14:09.677Z,18.33
2023-03-29T21:16:36.904Z,18.32
2023-03-29T21:19:03.668Z,18.26
2023-03-29T21:21:30.533Z,18.23
2023-03-29T21:23:57.929Z,18.18
2023-03-29T21:26:24.681Z,18.24
2023-03-29T21:28:51.623Z,18.17
2023-03-29T21:31:18.491Z,18.18
2023-03-29T21:33:46.123Z,18.14
2023-03-29T21:36:13.150Z,18.15
2023-03-29T21:38:41.449Z,18.15
2023-03-29T21:41:12.186Z,18.13
2023-03-29T21:43:40.063Z,18.15
2023-03-29T21:46:07.273Z,18.15
2023-03-29T21:48:34.323Z,18.15
2023-03-29T21:51:01.627Z,18.14
2023-03-29T21:53:30.047Z,18.15
2023-03-29T21:55:57.066Z,18.14
2023-03-29T21:58:24.286Z,18.10
2023-03-29T22:00:51.557Z,18.11
2023-03-29T22:03:18.574Z,18.10
2023-03-29T22:06:05.525Z,18.13
2023-03-29T22:08:32.885Z,17.90
2023-03-29T22:11:08.647Z,18.06
2023-03-29T22:13:41.558Z,18.00
2023-03-29T22:16:17.006Z,17.88
2023-03-29T22:18:44.622Z,18.03
2023-03-29T22:21:13.873Z,18.01
2023-03-29T22:23:45.515Z,18.06
2023-03-29T22:26:13.127Z,18.05
2023-03-29T22:28:40.479Z,17.84
2023-03-29T22:31:08.786Z,18.02
2023-03-29T22:33:36.077Z,18.03
2023-03-29T22:36:12.304Z,17.88
2023-03-29T22:38:39.280Z,17.94
2023-03-29T22:41:06.602Z,18.00
2023-03-29T22:43:33.467Z,18.14
2023-03-29T22:46:00.523Z,17.90
2023-03-29T22:48:27.809Z,18.17
2023-03-29T22:50:54.721Z,18.19
2023-03-29T22:53:21.730Z,18.08
2023-03-29T22:55:48.475Z,17.96
2023-03-29T22:58:15.381Z,17.95
2023-03-29T23:00:42.211Z,17.97
2023-03-29T23:03:09.136Z,18.17
2023-03-29T23:05:36.541Z,18.05
2023-03-29T23:08:03.374Z,18.02
2023-03-29T23:10:30.689Z,18.32
2023-03-29T23:13:08.825Z,18.17
2023-03-29T23:15:42.884Z,18.18
2023-03-29T23:18:13.250Z,18.42
2023-03-29T23:20:40.877Z,18.34
2023-03-29T23:23:07.768Z,18.43
2023-03-29T23:25:34.721Z,18.42
2023-03-29T23:28:03.002Z,18.44
2023-03-29T23:30:32.488Z,18.47
2023-03-29T23:33:00.312Z,18.35
2023-03-29T23:35:27.164Z,18.44
2023-03-29T23:37:54.563Z,18.43
2023-03-29T23:40:21.691Z,18.40
2023-03-29T23:42:49.124Z,18.41
2023-03-29T23:45:18.386Z,18.34
2023-03-29T23:47:45.614Z,18.45
2023-03-29T23:50:13.771Z,18.37
2023-03-29T23:52:51.787Z,17.90
2023-03-29T23:55:19.048Z,18.28
2023-03-29T23:57:45.855Z,18.32
